Athens Township, Pennsylvania
Current Conditions -  °F | °C
As of 2:53 AM on Wednesday 26 Nov 2014 (Local Time) from KBGM Reporting Station
Clear Clear  
Wind Chill: 31°   Ceiling: Unl
Heat Index: 31°   Visibility: 10mi
Dew Point: 27°   Wind: 0mph
Humidity: 85%   Direction: NA
Pressure: 30.16"   Gusts: NA
Location:  41.9771°N, 76.4144°W
Report Text: KBGM 260753Z AUTO 00000KT 10SM CLR M01/M03 A3016 RMK AO2 SLP225 T10061028
Loading
Personal Weather Stations






























Interactive Weather Map New forecast layout! Learn more

10-Day Weather Forecast

Advertisements
Track Severe Weather on mobile